createdAt,value
2023-08-27T00:00:19.436Z,207.25
2023-08-27T00:02:46.888Z,321.23
2023-08-27T00:05:14.426Z,305.95
2023-08-27T00:07:41.923Z,314.40
2023-08-27T00:10:09.733Z,443.42
2023-08-27T00:12:36.984Z,476.15
2023-08-27T00:15:05.043Z,628.45
2023-08-27T00:17:32.333Z,999.90
2023-08-27T00:19:59.730Z,131.13
2023-08-27T00:22:27.016Z,76.22
2023-08-27T00:24:54.214Z,68.20
2023-08-27T00:27:21.408Z,68.78
2023-08-27T00:29:49.339Z,63.40
2023-08-27T00:32:25.667Z,80.00
2023-08-27T00:34:54.522Z,67.57
2023-08-27T00:37:23.137Z,82.65
2023-08-27T00:39:50.520Z,97.95
2023-08-27T00:42:17.863Z,88.88
2023-08-27T00:44:45.154Z,108.13
2023-08-27T00:47:12.931Z,115.65
2023-08-27T00:49:40.793Z,123.00
2023-08-27T00:52:09.499Z,133.53
2023-08-27T00:54:38.572Z,147.97
2023-08-27T00:57:05.975Z,160.43
2023-08-27T00:59:35.219Z,123.90
2023-08-27T01:02:03.758Z,134.17
2023-08-27T01:04:31.019Z,167.00
2023-08-27T01:07:03.468Z,120.07
2023-08-27T01:09:30.775Z,122.57
2023-08-27T01:12:09.975Z,115.35
2023-08-27T01:14:38.452Z,116.63
2023-08-27T01:17:06.180Z,24.33
2023-08-27T01:19:33.650Z,91.45
2023-08-27T01:22:00.889Z,110.65
2023-08-27T01:24:28.066Z,126.55
2023-08-27T01:27:06.575Z,169.70
2023-08-27T01:29:42.989Z,188.35
2023-08-27T01:32:17.194Z,133.20
2023-08-27T01:34:45.221Z,211.77
2023-08-27T01:37:15.954Z,180.10
2023-08-27T01:39:46.016Z,151.30
2023-08-27T01:42:13.978Z,97.30
2023-08-27T01:44:41.458Z,141.15
2023-08-27T01:47:08.941Z,149.90
2023-08-27T01:49:36.518Z,167.50
2023-08-27T01:52:03.798Z,195.80
2023-08-27T01:54:34.239Z,233.88
2023-08-27T01:57:01.574Z,252.35
2023-08-27T01:59:28.837Z,971.75
2023-08-27T02:01:56.623Z,999.90
2023-08-27T02:04:24.048Z,999.90
2023-08-27T02:06:51.254Z,25.15
2023-08-27T02:09:18.595Z,20.65
2023-08-27T02:11:47.614Z,41.20
2023-08-27T02:14:14.857Z,7.43
2023-08-27T02:16:42.139Z,9.82
2023-08-27T02:19:09.429Z,8.10
2023-08-27T02:21:36.673Z,8.40
2023-08-27T02:24:04.008Z,19.35
2023-08-27T02:26:31.326Z,41.63
2023-08-27T02:28:58.617Z,38.53
2023-08-27T02:31:25.891Z,42.50
2023-08-27T02:33:53.142Z,43.67
2023-08-27T02:36:20.590Z,55.23
2023-08-27T02:38:47.856Z,20.92
2023-08-27T02:41:15.098Z,6.88
2023-08-27T02:43:43.786Z,6.82
2023-08-27T02:46:12.376Z,15.07
2023-08-27T02:48:39.654Z,9.18
2023-08-27T02:51:06.888Z,3.30
2023-08-27T02:53:34.109Z,3.08
2023-08-27T02:56:01.347Z,4.47
2023-08-27T02:58:28.684Z,6.57
2023-08-27T03:00:56.274Z,11.63
2023-08-27T03:03:23.637Z,13.68
2023-08-27T03:05:51.094Z,14.43
2023-08-27T03:08:18.374Z,15.27
2023-08-27T03:10:45.711Z,25.70
2023-08-27T03:13:13.012Z,25.10
2023-08-27T03:15:40.276Z,19.85
2023-08-27T03:18:07.974Z,24.33
2023-08-27T03:20:35.327Z,16.73
2023-08-27T03:23:03.422Z,27.45
2023-08-27T03:25:30.633Z,16.20
2023-08-27T03:27:57.831Z,12.60
2023-08-27T03:30:25.085Z,11.50
2023-08-27T03:32:53.362Z,9.73
2023-08-27T03:35:20.676Z,49.83
2023-08-27T03:37:47.944Z,114.05
2023-08-27T03:40:15.130Z,134.02
2023-08-27T03:42:42.357Z,144.47
2023-08-27T03:45:10.220Z,147.23
2023-08-27T03:47:37.538Z,51.73
2023-08-27T03:50:05.780Z,96.25
2023-08-27T03:52:35.527Z,217.05
2023-08-27T03:55:03.797Z,242.45
2023-08-27T03:57:31.441Z,253.38
2023-08-27T03:59:58.681Z,417.10
2023-08-27T04:02:26.003Z,432.00
2023-08-27T04:04:53.240Z,514.67
2023-08-27T04:07:20.724Z,558.58
2023-08-27T04:09:47.955Z,927.17
2023-08-27T04:12:15.211Z,702.55
2023-08-27T04:14:42.430Z,744.20
2023-08-27T04:17:09.708Z,888.33
2023-08-27T04:19:36.939Z,705.65
2023-08-27T04:22:04.193Z,751.13
2023-08-27T04:24:32.123Z,758.92
2023-08-27T04:26:59.942Z,958.95
2023-08-27T04:29:30.517Z,999.90
2023-08-27T04:31:57.844Z,928.67
2023-08-27T04:34:25.082Z,926.03
2023-08-27T04:36:52.417Z,482.30
2023-08-27T04:39:19.643Z,709.30
2023-08-27T04:41:47.872Z,592.08
2023-08-27T04:44:15.442Z,366.83
2023-08-27T04:46:42.953Z,360.42
2023-08-27T04:49:10.139Z,610.78
2023-08-27T04:51:37.387Z,753.53
2023-08-27T04:54:04.812Z,963.60
2023-08-27T04:56:32.016Z,999.90
2023-08-27T04:58:59.270Z,999.90
2023-08-27T05:01:28.227Z,331.27
2023-08-27T05:03:55.539Z,280.17
2023-08-27T05:06:22.936Z,339.70
2023-08-27T05:08:51.199Z,217.90
2023-08-27T05:11:19.200Z,206.45
2023-08-27T05:13:46.589Z,261.45
2023-08-27T05:16:13.889Z,345.60
2023-08-27T05:18:43.337Z,543.00
2023-08-27T05:21:10.573Z,844.05
2023-08-27T05:23:37.829Z,999.90
2023-08-27T05:26:05.068Z,360.33
2023-08-27T05:28:32.250Z,447.75
2023-08-27T05:30:59.872Z,587.00
2023-08-27T05:33:27.126Z,771.53
2023-08-27T05:35:56.020Z,744.03
2023-08-27T05:38:23.459Z,815.17
2023-08-27T05:40:53.771Z,497.13
2023-08-27T05:43:21.243Z,397.27
2023-08-27T05:45:48.446Z,398.58
2023-08-27T05:48:17.479Z,343.15
2023-08-27T05:50:45.655Z,601.58
2023-08-27T05:53:13.657Z,787.10
2023-08-27T05:55:40.918Z,181.40
2023-08-27T05:58:08.156Z,154.80
2023-08-27T06:00:35.987Z,158.20
2023-08-27T06:03:04.900Z,140.52
2023-08-27T06:05:32.587Z,121.82
2023-08-27T06:08:03.773Z,129.32
2023-08-27T06:10:31.202Z,129.27
2023-08-27T06:12:59.142Z,131.32
2023-08-27T06:15:28.531Z,151.40
2023-08-27T06:17:55.932Z,170.35
2023-08-27T06:20:23.209Z,168.20
2023-08-27T06:22:50.591Z,198.95
2023-08-27T06:25:25.342Z,175.65
2023-08-27T06:27:54.937Z,50.60
2023-08-27T06:30:22.745Z,53.10
2023-08-27T06:32:50.835Z,198.63
2023-08-27T06:35:18.847Z,183.20
2023-08-27T06:37:46.162Z,24.30
2023-08-27T06:40:16.078Z,218.60
2023-08-27T06:42:43.768Z,111.60
2023-08-27T06:45:17.032Z,29.35
2023-08-27T06:47:44.721Z,35.15
2023-08-27T06:50:11.980Z,44.08
2023-08-27T06:52:39.330Z,46.63
2023-08-27T06:55:06.797Z,189.10
2023-08-27T06:57:35.059Z,106.22
2023-08-27T07:00:03.754Z,86.85
2023-08-27T07:02:31.135Z,138.73
2023-08-27T07:04:58.733Z,127.70
2023-08-27T07:07:26.989Z,129.17
2023-08-27T07:09:54.371Z,91.85
2023-08-27T07:12:21.595Z,112.03
2023-08-27T07:14:50.523Z,121.63
2023-08-27T07:17:17.755Z,130.35
2023-08-27T07:19:45.005Z,376.10
2023-08-27T07:22:12.723Z,114.82
2023-08-27T07:24:40.012Z,198.87
2023-08-27T07:27:07.297Z,62.65
2023-08-27T07:29:34.505Z,77.30
2023-08-27T07:32:01.792Z,181.00
2023-08-27T07:34:29.146Z,222.15
2023-08-27T07:36:57.068Z,222.05
2023-08-27T07:39:24.299Z,174.10
2023-08-27T07:41:52.144Z,141.50
2023-08-27T07:44:19.700Z,89.35
2023-08-27T07:46:46.929Z,136.32
2023-08-27T07:49:14.260Z,155.05
2023-08-27T07:51:41.512Z,131.65
2023-08-27T07:54:09.264Z,148.80
2023-08-27T07:56:36.626Z,182.53
2023-08-27T07:59:03.852Z,156.85
2023-08-27T08:01:32.103Z,179.70
2023-08-27T08:03:59.761Z,198.45
2023-08-27T08:06:27.129Z,238.05
2023-08-27T08:08:54.630Z,215.10
2023-08-27T08:11:21.829Z,271.48
2023-08-27T08:13:49.102Z,298.77
2023-08-27T08:16:16.382Z,248.88
2023-08-27T08:18:43.685Z,437.63
2023-08-27T08:21:10.874Z,408.30
2023-08-27T08:23:38.165Z,462.05
2023-08-27T08:26:06.852Z,423.20
2023-08-27T08:28:35.666Z,366.53
2023-08-27T08:31:04.256Z,311.02
2023-08-27T08:33:31.610Z,275.83
2023-08-27T08:35:58.877Z,345.63
2023-08-27T08:38:26.964Z,480.15
2023-08-27T08:40:59.756Z,304.05
2023-08-27T08:43:27.054Z,407.20
2023-08-27T08:46:14.685Z,589.75
2023-08-27T08:48:43.211Z,454.40
2023-08-27T08:51:11.887Z,999.90
2023-08-27T08:53:46.363Z,461.17
2023-08-27T08:56:20.388Z,487.85
2023-08-27T08:58:53.521Z,520.38
2023-08-27T09:01:21.199Z,577.97
2023-08-27T09:03:49.592Z,568.30
2023-08-27T09:06:24.056Z,727.30
2023-08-27T09:08:54.864Z,925.17
2023-08-27T09:11:22.448Z,283.85
2023-08-27T09:13:49.730Z,548.35
2023-08-27T09:16:17.029Z,564.63
2023-08-27T09:18:44.301Z,793.57
2023-08-27T09:21:11.744Z,733.10
2023-08-27T09:23:39.551Z,978.53
2023-08-27T09:26:07.368Z,878.22
2023-08-27T09:28:34.930Z,541.25
2023-08-27T09:31:05.489Z,682.92
2023-08-27T09:33:40.986Z,590.22
2023-08-27T09:36:09.278Z,893.60
2023-08-27T09:38:36.754Z,999.60
2023-08-27T09:41:16.674Z,846.78
2023-08-27T09:43:56.316Z,844.13
2023-08-27T09:46:23.812Z,871.63
2023-08-27T09:49:01.320Z,978.33
2023-08-27T09:51:31.578Z,955.72
2023-08-27T09:53:58.858Z,999.90
2023-08-27T09:56:29.681Z,999.90
2023-08-27T09:58:57.518Z,999.90
2023-08-27T10:01:26.833Z,743.80
2023-08-27T10:03:54.767Z,824.78
2023-08-27T10:06:22.269Z,632.00
2023-08-27T10:08:55.593Z,711.95
2023-08-27T10:11:23.957Z,571.70
2023-08-27T10:13:51.436Z,702.63
2023-08-27T10:16:19.868Z,737.10
2023-08-27T10:18:48.043Z,761.78
2023-08-27T10:21:15.685Z,805.88
2023-08-27T10:23:45.009Z,912.72
2023-08-27T10:26:12.383Z,954.70
2023-08-27T10:28:40.951Z,791.28
2023-08-27T10:31:08.805Z,822.17
2023-08-27T10:33:36.034Z,838.50
2023-08-27T10:36:25.838Z,910.80
2023-08-27T10:38:55.032Z,968.65
2023-08-27T10:41:29.931Z,954.70
2023-08-27T10:43:57.450Z,999.90
2023-08-27T10:46:26.075Z,999.90
2023-08-27T10:48:54.430Z,999.90
2023-08-27T10:51:22.572Z,539.75
2023-08-27T10:53:50.252Z,496.95
2023-08-27T10:56:27.235Z,553.63
2023-08-27T10:58:54.505Z,525.50
2023-08-27T11:01:26.156Z,702.53
2023-08-27T11:03:53.411Z,612.03
2023-08-27T11:06:21.380Z,719.05
2023-08-27T11:08:53.691Z,947.70
2023-08-27T11:11:27.724Z,434.52
2023-08-27T11:14:19.122Z,375.87
2023-08-27T11:16:49.827Z,460.48
2023-08-27T11:19:26.709Z,303.40
2023-08-27T11:22:11.360Z,393.48
2023-08-27T11:24:44.423Z,597.70
2023-08-27T11:27:12.837Z,999.90
2023-08-27T11:29:43.425Z,579.25
2023-08-27T11:32:11.661Z,605.10
2023-08-27T11:34:40.012Z,591.08
2023-08-27T11:37:07.507Z,586.72
2023-08-27T11:39:36.130Z,588.58
2023-08-27T11:42:04.664Z,458.70
2023-08-27T11:44:31.884Z,570.78
2023-08-27T11:47:08.495Z,620.00
2023-08-27T11:49:36.795Z,706.50
2023-08-27T11:52:04.810Z,748.97
2023-08-27T11:54:32.769Z,902.58
2023-08-27T11:57:00.372Z,535.20
2023-08-27T11:59:32.045Z,408.75
2023-08-27T12:01:59.779Z,474.03
2023-08-27T12:04:30.688Z,760.08
2023-08-27T12:07:01.822Z,770.95
2023-08-27T12:09:29.993Z,853.23
2023-08-27T12:12:01.670Z,839.03
2023-08-27T12:14:29.829Z,898.95
2023-08-27T12:17:09.070Z,932.85
2023-08-27T12:19:37.628Z,910.03
2023-08-27T12:22:05.107Z,932.92
2023-08-27T12:24:32.372Z,999.90
2023-08-27T12:27:06.236Z,999.90
2023-08-27T12:29:34.691Z,999.90
2023-08-27T12:32:12.681Z,999.90
2023-08-27T12:34:49.860Z,999.90
2023-08-27T12:37:18.563Z,999.90
2023-08-27T12:39:46.734Z,999.90
2023-08-27T12:42:15.614Z,999.90
2023-08-27T12:44:43.194Z,999.90
2023-08-27T12:47:10.470Z,999.90
2023-08-27T12:49:38.244Z,868.35
2023-08-27T12:52:06.196Z,858.90
2023-08-27T12:54:34.709Z,999.90
2023-08-27T12:57:02.084Z,999.90
2023-08-27T12:59:34.964Z,999.90
2023-08-27T13:02:02.407Z,999.90
2023-08-27T13:04:30.675Z,999.90
2023-08-27T13:06:58.320Z,706.33
2023-08-27T13:09:25.633Z,948.08
2023-08-27T13:11:53.618Z,577.60
2023-08-27T13:14:20.958Z,616.70
2023-08-27T13:16:48.868Z,344.58
2023-08-27T13:19:16.684Z,360.80
2023-08-27T13:21:47.873Z,471.03
2023-08-27T13:24:15.500Z,606.00
2023-08-27T13:26:42.757Z,540.95
2023-08-27T13:29:10.202Z,551.20
2023-08-27T13:31:38.618Z,586.83
2023-08-27T13:34:06.998Z,656.78
2023-08-27T13:36:34.267Z,741.38
2023-08-27T13:39:05.030Z,851.80
2023-08-27T13:41:36.659Z,591.33
2023-08-27T13:44:03.941Z,105.05
2023-08-27T13:46:31.335Z,279.90
2023-08-27T13:48:58.523Z,291.95
2023-08-27T13:51:25.906Z,321.90
2023-08-27T13:53:53.221Z,197.60
2023-08-27T13:56:21.103Z,293.60
2023-08-27T13:58:48.358Z,203.02
2023-08-27T14:01:15.676Z,380.02
2023-08-27T14:03:43.068Z,195.13
2023-08-27T14:06:10.316Z,372.83
2023-08-27T14:08:37.532Z,282.95
2023-08-27T14:11:04.831Z,187.00
2023-08-27T14:13:32.786Z,211.63
2023-08-27T14:16:00.202Z,205.70
2023-08-27T14:18:27.445Z,267.75
2023-08-27T14:20:54.635Z,195.30
2023-08-27T14:23:22.038Z,289.98
2023-08-27T14:25:49.263Z,218.88
2023-08-27T14:28:16.525Z,309.60
2023-08-27T14:30:44.051Z,222.53
2023-08-27T14:33:11.393Z,213.40
2023-08-27T14:35:38.655Z,245.43
2023-08-27T14:38:05.955Z,297.13
2023-08-27T14:40:33.248Z,345.27
2023-08-27T14:43:00.590Z,235.43
2023-08-27T14:45:27.776Z,261.70
2023-08-27T14:47:55.109Z,297.50
2023-08-27T14:50:22.483Z,233.73
2023-08-27T14:52:49.998Z,293.73
2023-08-27T14:55:17.325Z,312.30
2023-08-27T14:57:50.840Z,337.25
2023-08-27T15:00:18.884Z,306.55
2023-08-27T15:02:46.261Z,394.13
2023-08-27T15:05:14.086Z,377.17
2023-08-27T15:07:41.359Z,370.73
2023-08-27T15:10:08.748Z,299.02
2023-08-27T15:12:35.987Z,309.52
2023-08-27T15:15:03.743Z,323.70
2023-08-27T15:17:31.002Z,320.80
2023-08-27T15:19:58.322Z,324.47
2023-08-27T15:22:25.635Z,326.73
2023-08-27T15:24:53.022Z,310.05
2023-08-27T15:27:20.232Z,315.33
2023-08-27T15:29:47.595Z,325.35
2023-08-27T15:32:14.849Z,341.45
2023-08-27T15:34:43.271Z,361.45
2023-08-27T15:37:10.677Z,389.30
2023-08-27T15:39:37.932Z,382.90
2023-08-27T15:42:05.397Z,434.83
2023-08-27T15:44:32.641Z,449.77
2023-08-27T15:46:59.817Z,491.15
2023-08-27T15:49:27.118Z,553.03
2023-08-27T15:51:54.672Z,613.78
2023-08-27T15:54:22.262Z,841.08
2023-08-27T15:56:49.435Z,705.15
2023-08-27T15:59:16.730Z,714.05
2023-08-27T16:01:43.933Z,475.53
2023-08-27T16:04:11.268Z,523.67
2023-08-27T16:06:38.580Z,535.20
2023-08-27T16:09:05.993Z,584.67
2023-08-27T16:11:33.207Z,545.97
2023-08-27T16:14:01.715Z,631.50
2023-08-27T16:16:31.715Z,637.50
2023-08-27T16:18:59.253Z,652.57
2023-08-27T16:21:26.998Z,514.15
2023-08-27T16:23:54.249Z,601.70
2023-08-27T16:26:21.457Z,654.38
2023-08-27T16:28:48.895Z,718.25
2023-08-27T16:31:25.687Z,671.47
2023-08-27T16:33:53.492Z,694.72
2023-08-27T16:36:20.734Z,718.00
2023-08-27T16:38:47.976Z,725.75
2023-08-27T16:41:17.254Z,715.63
2023-08-27T16:43:44.518Z,673.97
2023-08-27T16:46:11.814Z,729.65
2023-08-27T16:48:39.089Z,667.40
2023-08-27T16:51:07.945Z,716.93
2023-08-27T16:53:35.199Z,566.95
2023-08-27T16:56:03.205Z,712.88
2023-08-27T16:58:30.490Z,728.80
2023-08-27T17:00:57.752Z,764.33
2023-08-27T17:03:25.090Z,765.83
2023-08-27T17:05:59.878Z,839.92
2023-08-27T17:08:28.182Z,836.75
2023-08-27T17:10:55.522Z,903.78
2023-08-27T17:13:22.762Z,900.03
2023-08-27T17:15:51.210Z,849.45
2023-08-27T17:18:18.557Z,899.97
2023-08-27T17:20:45.990Z,873.00
2023-08-27T17:23:13.257Z,881.33
2023-08-27T17:25:40.594Z,893.17
2023-08-27T17:28:07.933Z,887.13
2023-08-27T17:30:35.621Z,909.30
2023-08-27T17:33:07.306Z,999.90
2023-08-27T17:35:37.587Z,999.90
2023-08-27T17:38:05.266Z,999.90
2023-08-27T17:40:32.466Z,999.90
2023-08-27T17:42:59.852Z,948.25
2023-08-27T17:45:27.510Z,937.67
2023-08-27T17:48:08.797Z,999.90
2023-08-27T17:50:36.592Z,999.90
2023-08-27T17:53:04.296Z,999.90
2023-08-27T17:55:31.517Z,999.90
2023-08-27T17:57:59.139Z,678.42
2023-08-27T18:00:26.770Z,804.20
2023-08-27T18:02:55.132Z,921.45
2023-08-27T18:05:22.482Z,884.05
2023-08-27T18:07:49.770Z,999.90
2023-08-27T18:10:17.009Z,983.53
2023-08-27T18:12:44.239Z,833.55
2023-08-27T18:15:11.569Z,999.90
2023-08-27T18:17:38.843Z,970.55
2023-08-27T18:20:06.441Z,814.63
2023-08-27T18:22:34.079Z,856.83
2023-08-27T18:25:01.277Z,999.90
2023-08-27T18:27:28.636Z,999.90
2023-08-27T18:29:55.865Z,999.90
2023-08-27T18:32:23.129Z,999.90
2023-08-27T18:34:50.503Z,999.90
2023-08-27T18:37:17.870Z,999.90
2023-08-27T18:39:45.106Z,999.90
2023-08-27T18:42:20.239Z,999.90
2023-08-27T18:44:55.152Z,999.90
2023-08-27T18:47:22.437Z,999.90
2023-08-27T18:49:49.716Z,999.90
2023-08-27T18:52:17.022Z,999.90
2023-08-27T18:54:44.378Z,789.87
2023-08-27T18:57:11.578Z,767.10
2023-08-27T18:59:39.664Z,662.72
2023-08-27T19:02:09.280Z,730.00
2023-08-27T19:04:36.582Z,818.30
2023-08-27T19:07:03.889Z,589.63
2023-08-27T19:09:31.078Z,590.50
2023-08-27T19:12:00.171Z,665.38
2023-08-27T19:14:27.433Z,814.83
2023-08-27T19:16:54.692Z,848.88
2023-08-27T19:19:22.313Z,631.65
2023-08-27T19:21:49.530Z,685.85
2023-08-27T19:24:16.724Z,650.15
2023-08-27T19:26:44.049Z,748.72
2023-08-27T19:29:11.333Z,810.33
2023-08-27T19:31:46.589Z,830.65
2023-08-27T19:34:14.836Z,687.28
2023-08-27T19:36:43.248Z,729.85
2023-08-27T19:39:11.319Z,683.10
2023-08-27T19:41:38.538Z,877.73
2023-08-27T19:44:05.984Z,923.67
2023-08-27T19:46:33.267Z,963.53
2023-08-27T19:49:00.625Z,999.90
2023-08-27T19:51:28.061Z,998.00
2023-08-27T19:53:55.705Z,646.73
2023-08-27T19:56:22.900Z,495.33
2023-08-27T19:58:50.116Z,540.72
2023-08-27T20:01:17.423Z,551.33
2023-08-27T20:03:44.691Z,711.58
2023-08-27T20:06:11.944Z,585.83
2023-08-27T20:08:39.254Z,609.80
2023-08-27T20:11:06.503Z,449.48
2023-08-27T20:13:33.974Z,522.55
2023-08-27T20:16:01.766Z,482.30
2023-08-27T20:18:28.997Z,526.05
2023-08-27T20:20:57.028Z,545.93
2023-08-27T20:23:24.476Z,800.17
2023-08-27T20:25:52.173Z,464.23
2023-08-27T20:28:19.821Z,834.92
2023-08-27T20:30:48.342Z,999.90
2023-08-27T20:33:16.202Z,899.28
2023-08-27T20:35:43.628Z,738.03
2023-08-27T20:38:10.914Z,773.60
2023-08-27T20:40:38.972Z,698.05
2023-08-27T20:43:06.618Z,841.88
2023-08-27T20:45:36.106Z,787.63
2023-08-27T20:48:07.900Z,573.97
2023-08-27T20:50:36.031Z,770.15
2023-08-27T20:53:03.567Z,848.00
2023-08-27T20:55:31.082Z,648.13
2023-08-27T20:57:58.306Z,501.02
2023-08-27T21:00:25.625Z,593.78
2023-08-27T21:02:52.875Z,612.20
2023-08-27T21:05:20.368Z,693.67
2023-08-27T21:07:47.876Z,713.97
2023-08-27T21:10:15.206Z,747.85
2023-08-27T21:12:42.479Z,929.10
2023-08-27T21:15:09.828Z,999.90
2023-08-27T21:17:37.103Z,895.67
2023-08-27T21:20:04.834Z,985.13
2023-08-27T21:22:32.361Z,999.90
2023-08-27T21:24:59.767Z,999.90
2023-08-27T21:27:27.177Z,984.13
2023-08-27T21:29:54.482Z,814.05
2023-08-27T21:32:22.033Z,446.05
2023-08-27T21:34:49.326Z,542.25
2023-08-27T21:37:16.610Z,647.17
2023-08-27T21:39:43.891Z,323.55
2023-08-27T21:42:11.083Z,324.15
2023-08-27T21:44:39.949Z,366.10
2023-08-27T21:47:07.284Z,492.50
2023-08-27T21:49:34.481Z,564.95
2023-08-27T21:52:01.782Z,554.83
2023-08-27T21:54:30.502Z,391.10
2023-08-27T21:56:57.720Z,425.48
2023-08-27T21:59:24.939Z,263.10
2023-08-27T22:01:52.337Z,421.30
2023-08-27T22:04:20.576Z,483.17
2023-08-27T22:06:47.807Z,427.98
2023-08-27T22:09:14.982Z,454.67
2023-08-27T22:11:42.266Z,465.63
2023-08-27T22:14:09.481Z,485.88
2023-08-27T22:16:39.601Z,360.40
2023-08-27T22:19:21.969Z,617.33
2023-08-27T22:21:50.610Z,273.00
2023-08-27T22:24:17.904Z,262.25
2023-08-27T22:26:45.613Z,271.90
2023-08-27T22:29:12.852Z,310.45
2023-08-27T22:31:40.662Z,344.75
2023-08-27T22:34:07.890Z,335.85
2023-08-27T22:36:35.110Z,336.98
2023-08-27T22:39:02.357Z,317.33
2023-08-27T22:41:29.547Z,325.38
2023-08-27T22:43:56.808Z,307.00
2023-08-27T22:46:24.097Z,299.35
2023-08-27T22:48:51.356Z,321.55
2023-08-27T22:51:18.549Z,331.58
2023-08-27T22:53:45.815Z,314.92
2023-08-27T22:56:13.084Z,333.63
2023-08-27T22:58:40.267Z,329.92
2023-08-27T23:01:07.512Z,326.30
2023-08-27T23:03:34.802Z,443.37
2023-08-27T23:06:02.024Z,394.58
2023-08-27T23:08:29.213Z,309.45
2023-08-27T23:10:56.849Z,508.35
2023-08-27T23:13:24.634Z,367.87
2023-08-27T23:15:51.929Z,394.00
2023-08-27T23:18:19.386Z,668.37
2023-08-27T23:20:47.096Z,554.45
2023-08-27T23:23:15.095Z,729.33
2023-08-27T23:25:43.237Z,440.23
2023-08-27T23:28:10.472Z,278.30
2023-08-27T23:30:37.867Z,356.88
2023-08-27T23:33:06.723Z,473.02
2023-08-27T23:35:35.326Z,277.43
2023-08-27T23:38:02.618Z,427.00
2023-08-27T23:40:30.193Z,256.45
2023-08-27T23:42:57.475Z,216.45
2023-08-27T23:45:25.078Z,222.27
2023-08-27T23:47:52.452Z,295.02
2023-08-27T23:50:19.812Z,323.17
2023-08-27T23:52:47.201Z,481.50
2023-08-27T23:55:14.424Z,319.40
2023-08-27T23:57:41.650Z,288.10
